Meteo Giornale » Osservazioni meteo Svizzera » Samedan

ore: 21:50 - Osservazioni Meteo Samedan
Lat. 46° 32' N Lon. 9° 53' E Alt. 1706 metri s.l.m.

sereno Europe/Zurich

3 °C

Sereno

Temp. 24 Ore

-3 °C

11 °C

Nord

3.7 Km/h

Dew point -3 °C

Umidità 64 %

Visibilità  10 Km

Il sole sorge alle ore 06:20

Il sole tramonta alle ore 20:17

Data e Ora Cielo e Fenomeni T °C DP °C Um. % Pres. hPa Vis. km Vento km/h
Oggi h: 21:50 sereno Sereno 3 -3 64 1020 10 N 3.7
Oggi h: 21:20 sereno Sereno 4 -4 55 1020 10 S/SO 7.4
Oggi h: 20:50 sereno Sereno 4 -3 60 1020 10 N 5.5
Oggi h: 20:20 sereno Sereno 6 -3 52 1020 10 N 3.7
Oggi h: 19:50 sereno Sereno 6 -4 48 1019 10 N 3.7
Oggi h: 19:20 sereno Sereno 9 -4 39 1019 10 N 5.5
Oggi h: 18:50 sereno Sereno 10 -5 34 1020 10 O/SO 9.3
Oggi h: 18:20 sereno Sereno 10 -5 34 1020 10 SO 11.1
Oggi h: 17:50 sereno Sereno 11 -6 29 1020 10 SO 11.1
Oggi h: 17:20 sereno Sereno 11 -8 25 1020 10 S 14.8
Oggi h: 16:50 sereno Sereno 10 -6 31 1020 10 S 13
Oggi h: 16:20 sereno Sereno 11 -7 27 1021 10 S 16.7
Oggi h: 15:50 sereno Sereno 10 -6 31 1021 10 SO 14.8
Oggi h: 15:20 sereno Sereno 10 -6 31 1021 10 S 16.7
Oggi h: 14:50 sereno Sereno 11 -8 25 1022 10 O 9.3
Oggi h: 14:20 sereno Sereno 9 -7 31 1022 10 S/SO 16.7
Oggi h: 13:50 sereno Sereno 10 -9 25 1022 10 SO 11.1
Oggi h: 13:20 sereno Sereno 11 -11 20 1022 10 N 3.7
Oggi h: 12:50 sereno Sereno 9 -10 24 1023 10 N 3.7
Oggi h: 12:20 sereno Sereno 10 -9 25 1023 10 N 3.7
Oggi h: 11:50 sereno Sereno 8 -9 28 1023 10 O/SO 7.4
Oggi h: 11:20 sereno Sereno 8 -7 33 1023 10 N 5.5
Oggi h: 10:50 sereno Sereno 7 -5 42 1024 10 N 1.8
Oggi h: 10:20 sereno Sereno 6 -6 41 1024 10 N 0
Oggi h: 09:50 sereno Sereno 4 -3 60 1024 10 N 1.8
Oggi h: 09:20 sereno Sereno 2 -3 69 1024 10 N 1.8
Oggi h: 08:20 sereno Sereno -2 -4 86 1025 10 N 1.8
Oggi h: 07:50 sereno Sereno -2 -4 86 1025 10 N 3.7
Oggi h: 07:20 sereno Sereno -3 -5 86 1025 10 N 3.7
Oggi h: 06:50 sereno Sereno -2 -4 86 1025 10 N 3.7
Oggi h: 06:20 sereno Sereno -2 -4 86 1025 10 N 3.7
Oggi h: 05:50 sereno Sereno -2 -4 86 1025 10 N 3.7
Oggi h: 05:20 sereno Sereno -2 -4 86 1026 10 N 5.5
Oggi h: 04:50 sereno Sereno -2 -4 86 1026 10 N 3.7
Oggi h: 04:20 sereno Sereno -3 -5 86 1026 10 N 3.7
Oggi h: 03:50 sereno Sereno -2 -5 79 1026 10 N 1.8
Oggi h: 03:20 sereno Sereno -1 -4 80 1026 10 N 1.8
Oggi h: 02:50 sereno Sereno -1 -4 80 1027 10 N 3.7
Oggi h: 02:20 sereno Sereno -0 -4 74 1027 10 N 5.5
Oggi h: 01:50 sereno Sereno -1 -4 80 1027 10 N 5.5
Oggi h: 01:20 sereno Sereno 0 -3 80 1027 10 N 3.7
Oggi h: 00:50 sereno Sereno -1 -5 74 1027 10 S/SO 7.4
Oggi h: 00:20 sereno Sereno -1 -5 74 1027 10 N 3.7
Ieri h: 23:50 sereno Sereno 0 -4 74 1028 10 N 3.7
Ieri h: 23:20 sereno Sereno 0 -4 74 1028 10 N 5.5
Ieri h: 22:50 sereno Sereno 1 -3 74 1027 10 N 5.5